Current Weather Conditions: station 42390

sailwx.info

Wind from 150 at 5 knots

Air temperature 21.7° C
Dewpoint 21.1° C

Last reported at 2015-Mar-02 13:30 UTC.
Time now 2015-Mar-02 15:07 UTC

Location: N 26°06' W 094°54'.
View on Google Maps.

See reports from other nearby stations

  
Tides and Currents Weather Stations Pressure Air Temp Water Temp Dewpoint Dewpoint Depression Visibility Wind Speed Wind Dir Waves Ship Positions
date/time (UTC)wind fromknots sea level pressurealtimeterstation pressurevisibilityair tempwater tempwave heightnotes
2015-Mar-02 13:30 150 5 21.7
2015-Mar-02 12:30 160 5 21.7
2015-Mar-02 11:30 180 5 21.7
2015-Mar-02 09:30 170 11 22.2
2015-Mar-02 07:30 150 13 22.2
2015-Mar-02 04:30 150 15
2015-Mar-02 01:30 140 17
2015-Mar-02 00:30 140 17 22.8
2015-Mar-01 21:30 22.8
2015-Mar-01 20:30 140 17 22.8
2015-Mar-01 15:30 130 13 22.8
2015-Mar-01 14:30 140 13 22.2
2015-Mar-01 13:30 150 13 22.2
2015-Mar-01 10:30 150 19 22.2
2015-Mar-01 07:30 140 23 22.2
2015-Mar-01 03:30 110 19 21.7
2015-Mar-01 02:30 100 17 21.7
2015-Feb-28 22:30 110 21 21.7
2015-Feb-28 21:30 110 21
2015-Feb-28 19:30 110 19 21.7
2015-Feb-28 16:30 100 19 21.1
2015-Feb-28 15:30 100 19 21.1